Time;durP1;ratioP1;P1;durP2;ratioP2;P2;SDS_P1;SDS_P2;PMS_P1;PMS_P2;Temp;Humidity;BMP_temperature;BMP_pressure;BME280_temperature;BME280_humidity;BME280_pressure;Samples;Min_cycle;Max_cycle;Signal;HPM_P1;HPM_P2
2023/08/03 00:00:55;;;;;;;7.33;1.70;;;;;;;19.02;64.78;97340.56;4955738;28;20724;-63
2023/08/03 00:03:26;;;;;;;9.50;1.70;;;;;;;18.98;65.02;97345.53;4957984;28;20795;-63
2023/08/03 00:05:52;;;;;;;7.27;1.60;;;;;;;19.01;65.37;97339.78;4957447;28;20235;-63
2023/08/03 00:08:19;;;;;;;6.30;1.40;;;;;;;19.07;65.59;97337.22;4957818;28;20683;-64
2023/08/03 00:10:45;;;;;;;9.77;1.83;;;;;;;19.10;65.12;97340.19;4959777;28;20240;-64
2023/08/03 00:13:13;;;;;;;11.90;1.60;;;;;;;19.05;66.18;97340.09;4957157;28;20242;-64
2023/08/03 00:15:40;;;;;;;4.63;1.30;;;;;;;19.00;67.32;97345.28;4960978;28;20231;-64
2023/08/03 00:18:07;;;;;;;8.10;2.07;;;;;;;18.96;66.73;97341.47;4952730;28;20231;-64
2023/08/03 00:20:33;;;;;;;5.93;1.20;;;;;;;18.97;67.49;97333.34;4958430;28;20223;-64
2023/08/03 00:23:00;;;;;;;7.33;1.50;;;;;;;18.88;67.26;97337.38;4955132;28;20235;-63
2023/08/03 00:25:30;;;;;;;6.93;1.60;;;;;;;18.87;67.30;97341.06;4957267;28;20228;-63
2023/08/03 00:27:56;;;;;;;6.10;1.53;;;;;;;18.87;67.43;97363.00;4970107;28;20228;-63
2023/08/03 00:30:26;;;;;;;6.30;1.33;;;;;;;18.91;66.81;97341.38;4958444;28;20697;-63
2023/08/03 00:32:53;;;;;;;7.07;1.17;;;;;;;18.81;68.52;97342.81;4952251;28;20250;-63
2023/08/03 00:35:19;;;;;;;6.10;1.33;;;;;;;18.79;68.50;97349.38;4956346;28;20472;-63
2023/08/03 00:37:46;;;;;;;9.00;1.60;;;;;;;18.78;68.23;97367.06;4956202;28;20227;-63
2023/08/03 00:40:13;;;;;;;7.50;1.43;;;;;;;18.75;68.79;97346.38;4953850;28;20246;-63
2023/08/03 00:42:40;;;;;;;8.37;1.73;;;;;;;18.79;68.30;97344.88;4954980;28;20228;-63
2023/08/03 00:45:10;;;;;;;8.17;1.70;;;;;;;18.81;68.26;97349.94;4953161;28;20234;-64
2023/08/03 00:47:38;;;;;;;8.43;1.40;;;;;;;18.84;68.62;97360.03;4957706;28;20258;-63
2023/08/03 00:50:06;;;;;;;6.63;1.60;;;;;;;18.79;68.42;97367.88;4954384;28;20233;-63
2023/08/03 00:52:33;;;;;;;8.03;1.60;;;;;;;18.78;67.84;97347.78;4959286;28;20232;-63
2023/08/03 00:55:00;;;;;;;12.23;1.57;;;;;;;18.76;67.97;97357.78;4957824;28;20276;-63
2023/08/03 00:57:27;;;;;;;6.40;1.63;;;;;;;18.77;66.83;97352.25;4967968;28;20250;-63
2023/08/03 00:59:54;;;;;;;10.63;1.83;;;;;;;18.80;65.91;97374.78;4961667;28;20237;-64
2023/08/03 01:02:21;;;;;;;7.00;1.67;;;;;;;18.77;66.05;97354.09;4953204;28;20254;-63
2023/08/03 01:04:49;;;;;;;11.53;2.77;;;;;;;18.69;66.02;97365.81;4949297;28;20245;-64
2023/08/03 01:07:16;;;;;;;6.07;1.50;;;;;;;18.74;65.29;97361.47;4948959;28;20232;-63
2023/08/03 01:09:43;;;;;;;6.67;1.33;;;;;;;18.82;63.66;97359.47;4947123;28;20991;-63
2023/08/03 01:12:10;;;;;;;8.97;1.30;;;;;;;18.73;64.84;97375.72;4950032;28;20264;-63
2023/08/03 01:14:36;;;;;;;9.43;1.40;;;;;;;18.68;64.45;97374.78;4954618;28;20228;-63
2023/08/03 01:17:03;;;;;;;6.07;1.30;;;;;;;18.69;64.36;97379.84;4965232;28;20914;-63
2023/08/03 01:19:30;;;;;;;5.60;1.40;;;;;;;18.78;63.30;97398.00;4960377;28;20236;-63
2023/08/03 01:22:00;;;;;;;7.27;1.23;;;;;;;18.78;62.19;97375.00;4948712;28;20237;-64
2023/08/03 01:24:29;;;;;;;5.67;1.40;;;;;;;18.74;62.44;97384.44;4966165;28;20305;-64
2023/08/03 01:26:57;;;;;;;5.63;1.40;;;;;;;18.77;62.24;97372.59;4949982;28;20226;-63
2023/08/03 01:29:23;;;;;;;5.77;1.17;;;;;;;18.78;62.19;97388.22;4959116;28;20696;-62
2023/08/03 01:31:56;;;;;;;4.80;1.30;;;;;;;18.69;63.74;97384.31;4970367;28;20241;-63
2023/08/03 01:34:23;;;;;;;8.40;1.23;;;;;;;18.66;62.67;97395.38;4950973;28;20234;-63
2023/08/03 01:36:50;;;;;;;6.10;1.10;;;;;;;18.66;62.94;97388.25;4952167;28;20226;-63
2023/08/03 01:39:17;;;;;;;7.83;1.17;;;;;;;18.64;62.67;97394.78;4949043;28;20227;-63
2023/08/03 01:41:45;;;;;;;6.43;1.10;;;;;;;18.55;63.51;97378.50;4953894;28;20239;-63
2023/08/03 01:44:27;;;;;;;5.77;1.03;;;;;;;18.48;64.10;97404.25;4955413;28;20301;-63
2023/08/03 01:46:54;;;;;;;3.93;0.90;;;;;;;18.46;63.60;97408.97;4949243;28;20238;-63
2023/08/03 01:49:22;;;;;;;7.77;1.00;;;;;;;18.40;64.46;97408.84;4969339;28;20227;-63
2023/08/03 01:51:50;;;;;;;4.50;0.80;;;;;;;18.28;66.22;97432.66;4956710;28;20233;-63
2023/08/03 01:54:17;;;;;;;7.50;0.93;;;;;;;17.58;74.17;97402.47;4967790;28;20614;-64
2023/08/03 01:56:44;;;;;;;2.53;0.50;;;;;;;16.88;80.02;97409.91;4956943;28;20222;-64
2023/08/03 01:59:11;;;;;;;2.87;0.53;;;;;;;16.71;79.99;97390.44;4948291;28;20883;-64
2023/08/03 02:01:38;;;;;;;3.37;0.83;;;;;;;16.35;81.12;97385.75;4951961;28;20239;-64
2023/08/03 02:04:05;;;;;;;4.90;1.10;;;;;;;16.57;81.44;97390.59;4967983;28;20231;-64
2023/08/03 02:06:33;;;;;;;7.63;0.83;;;;;;;16.57;80.35;97381.88;4958235;28;20336;-64
2023/08/03 02:09:01;;;;;;;6.53;0.80;;;;;;;16.63;82.29;97387.06;4951088;28;20588;-64
2023/08/03 02:11:28;;;;;;;4.67;1.00;;;;;;;16.82;78.65;97387.06;4972521;28;20242;-64
2023/08/03 02:13:56;;;;;;;4.50;0.80;;;;;;;17.06;77.91;97410.91;4957184;28;20232;-64
2023/08/03 02:16:22;;;;;;;7.13;2.13;;;;;;;17.25;76.07;97412.47;4964277;28;20240;-64
2023/08/03 02:18:49;;;;;;;8.23;1.50;;;;;;;17.34;75.41;97417.44;4960649;28;20234;-64
2023/08/03 02:21:16;;;;;;;8.33;1.20;;;;;;;17.58;73.51;97409.59;4969286;28;20556;-64
2023/08/03 02:23:43;;;;;;;4.43;1.10;;;;;;;17.57;72.96;97432.50;4959041;28;20242;-64
2023/08/03 02:26:09;;;;;;;6.90;1.00;;;;;;;17.59;72.24;97427.03;4963736;28;20230;-64
2023/08/03 02:28:36;;;;;;;7.03;1.10;;;;;;;17.62;72.77;97434.50;4965717;28;20236;-64
2023/08/03 02:31:04;;;;;;;5.43;1.13;;;;;;;17.64;72.97;97422.66;4951591;28;20235;-64
2023/08/03 02:33:39;;;;;;;8.80;1.33;;;;;;;17.60;73.31;97431.28;4965278;28;20233;-64
2023/08/03 02:36:07;;;;;;;7.53;1.10;;;;;;;17.58;73.14;97423.56;4952729;28;20745;-64
2023/08/03 02:38:34;;;;;;;5.60;1.20;;;;;;;17.54;73.46;97419.78;4964045;28;20324;-64
2023/08/03 02:41:02;;;;;;;3.50;0.90;;;;;;;17.50;74.88;97418.63;4958456;28;20237;-64
2023/08/03 02:43:33;;;;;;;9.27;1.23;;;;;;;17.57;72.39;97421.97;4973335;28;20226;-64
2023/08/03 02:46:01;;;;;;;3.23;0.70;;;;;;;17.57;73.78;97414.03;4966244;28;20572;-64
2023/08/03 02:48:34;;;;;;;7.20;1.10;;;;;;;17.56;72.90;97415.91;4964084;28;20682;-64
2023/08/03 02:51:04;;;;;;;8.13;1.73;;;;;;;17.55;73.29;97416.94;4961602;28;20244;-64
2023/08/03 02:53:35;;;;;;;9.70;1.13;;;;;;;17.61;71.86;97398.59;4958193;28;20230;-64
2023/08/03 02:56:03;;;;;;;9.13;1.40;;;;;;;17.58;72.03;97412.22;4961185;28;20239;-64
2023/08/03 02:58:36;;;;;;;5.37;1.10;;;;;;;17.59;72.21;97395.38;4959925;28;20235;-63
2023/08/03 03:01:11;;;;;;;7.80;1.40;;;;;;;17.58;71.45;97425.41;4959848;28;20236;-63
2023/08/03 03:03:39;;;;;;;8.97;1.37;;;;;;;17.55;71.67;97419.56;4955562;28;20239;-63
2023/08/03 03:06:06;;;;;;;5.50;1.43;;;;;;;17.52;71.24;97398.91;4951927;28;20581;-63
2023/08/03 03:08:35;;;;;;;9.10;1.37;;;;;;;17.54;72.70;97433.78;4958359;28;20312;-63
2023/08/03 03:11:02;;;;;;;8.33;1.03;;;;;;;17.60;71.67;97418.88;4952309;28;20240;-63
2023/08/03 03:13:31;;;;;;;6.20;1.70;;;;;;;17.58;70.84;97426.22;4957651;28;20237;-63
2023/08/03 03:15:57;;;;;;;7.67;1.43;;;;;;;17.55;71.70;97435.41;4952058;28;20341;-63
2023/08/03 03:18:28;;;;;;;7.30;1.80;;;;;;;17.57;70.86;97432.50;4950194;28;20327;-63
2023/08/03 03:20:56;;;;;;;8.50;1.93;;;;;;;17.54;70.88;97433.78;4951774;28;20238;-63
2023/08/03 03:23:21;;;;;;;8.33;1.37;;;;;;;17.53;71.31;97424.25;4962481;28;20235;-63
2023/08/03 03:25:48;;;;;;;7.27;1.87;;;;;;;17.54;71.13;97417.97;4963416;28;20305;-63
2023/08/03 03:28:15;;;;;;;8.80;1.33;;;;;;;17.53;70.64;97437.44;4951646;28;20234;-63
2023/08/03 03:30:42;;;;;;;8.57;1.20;;;;;;;17.54;69.51;97417.97;5148964;23;20218;-65
2023/08/03 03:33:09;;;;;;;6.57;1.40;;;;;;;17.54;70.17;97433.78;4950914;28;20231;-64
2023/08/03 03:35:40;;;;;;;8.63;1.30;;;;;;;17.50;71.09;97426.53;4955173;28;20232;-64
2023/08/03 03:38:09;;;;;;;5.23;1.20;;;;;;;17.52;69.58;97440.31;4969603;28;20734;-64
2023/08/03 03:40:36;;;;;;;6.57;1.23;;;;;;;17.51;69.67;97443.97;4949686;28;20313;-64
2023/08/03 03:43:03;;;;;;;3.87;0.93;;;;;;;17.49;69.50;97428.38;4938181;28;20285;-64
2023/08/03 03:45:31;;;;;;;6.50;1.10;;;;;;;17.48;68.99;97447.09;4950353;23;20765;-60
2023/08/03 03:47:59;;;;;;;4.13;0.70;;;;;;;17.52;68.54;97454.31;4961605;28;20240;-61
2023/08/03 03:50:26;;;;;;;4.27;0.90;;;;;;;17.48;69.01;97476.88;4965108;28;20231;-61
2023/08/03 03:52:53;;;;;;;5.33;1.10;;;;;;;17.49;69.27;97469.81;4961761;28;20233;-62
2023/08/03 03:55:23;;;;;;;6.03;1.37;;;;;;;17.46;69.23;97473.69;4980958;28;20242;-62
2023/08/03 03:57:55;;;;;;;3.70;0.70;;;;;;;17.48;69.46;97465.56;4959791;28;20627;-63
2023/08/03 04:00:21;;;;;;;5.60;1.07;;;;;;;17.48;68.57;97484.03;4964729;28;20241;-62
2023/08/03 04:02:52;;;;;;;7.10;0.90;;;;;;;17.46;69.40;97464.97;4964844;28;20232;-62
2023/08/03 04:05:21;;;;;;;3.10;0.73;;;;;;;17.40;68.78;97472.75;4962988;28;20316;-61
2023/08/03 04:07:48;;;;;;;4.83;1.00;;;;;;;17.37;68.77;97477.66;4964145;28;20264;-61
2023/08/03 04:10:14;;;;;;;8.50;1.20;;;;;;;17.45;67.46;97472.06;4963184;28;20242;-60
2023/08/03 04:12:42;;;;;;;3.97;0.70;;;;;;;17.38;68.48;97503.81;4974147;28;20593;-61
2023/08/03 04:15:09;;;;;;;3.60;0.60;;;;;;;17.38;67.76;97493.28;4962542;28;20226;-62
2023/08/03 04:17:37;;;;;;;4.67;0.80;;;;;;;17.38;67.36;97493.28;4966448;28;20736;-61
2023/08/03 04:20:05;;;;;;;4.80;0.90;;;;;;;17.33;68.50;97476.47;4970870;28;20280;-61
2023/08/03 04:22:31;;;;;;;5.37;0.90;;;;;;;17.32;68.29;97501.25;4964809;28;20234;-61
2023/08/03 04:25:00;;;;;;;5.17;0.80;;;;;;;17.29;68.12;97512.25;4962972;28;20292;-61
2023/08/03 04:27:29;;;;;;;5.87;0.63;;;;;;;17.28;67.92;97498.25;4964388;28;20235;-60
2023/08/03 04:29:57;;;;;;;3.47;0.70;;;;;;;17.27;68.19;97531.72;4947772;28;20222;-61
2023/08/03 04:32:25;;;;;;;5.30;0.70;;;;;;;17.32;68.50;97522.34;4964739;28;20238;-62
2023/08/03 04:34:52;;;;;;;3.70;0.60;;;;;;;17.31;68.77;97492.53;4964651;28;20714;-61
2023/08/03 04:37:19;;;;;;;5.57;0.80;;;;;;;17.29;69.14;97525.44;4963726;28;20243;-61
2023/08/03 04:39:46;;;;;;;6.13;1.13;;;;;;;17.22;70.64;97499.16;4979902;28;20245;-62
2023/08/03 04:42:15;;;;;;;3.57;0.70;;;;;;;17.17;71.11;97512.97;4961826;28;20234;-60
2023/08/03 04:44:42;;;;;;;4.43;0.97;;;;;;;17.14;72.10;97515.25;4964446;28;20254;-62
2023/08/03 04:47:10;;;;;;;2.63;0.53;;;;;;;17.13;72.16;97498.63;4961660;28;20257;-62
2023/08/03 04:49:38;;;;;;;4.97;0.97;;;;;;;17.09;72.23;97516.72;4969561;28;20313;-61
2023/08/03 04:52:09;;;;;;;6.10;0.70;;;;;;;17.10;72.27;97523.63;4961302;28;20829;-62
2023/08/03 04:54:36;;;;;;;4.80;0.80;;;;;;;17.10;72.68;97530.72;4964087;28;20234;-61
2023/08/03 04:57:03;;;;;;;3.47;0.80;;;;;;;17.08;72.11;97540.66;4953166;28;20721;-61
2023/08/03 04:59:33;;;;;;;3.47;0.57;;;;;;;17.05;72.81;97544.56;4979258;28;20796;-61
2023/08/03 05:02:00;;;;;;;6.27;0.90;;;;;;;17.06;74.89;97526.91;4964624;28;20281;-61
2023/08/03 05:04:29;;;;;;;4.00;0.60;;;;;;;16.95;76.35;97552.13;4964372;28;20238;-62
2023/08/03 05:06:57;;;;;;;3.93;0.77;;;;;;;16.82;79.11;97574.97;4961730;28;20269;-61
2023/08/03 05:09:23;;;;;;;5.07;0.63;;;;;;;16.42;82.00;97558.69;4964201;28;20321;-61
2023/08/03 05:11:50;;;;;;;7.03;0.90;;;;;;;16.18;87.02;97593.50;4964400;28;20243;-61
2023/08/03 05:14:17;;;;;;;5.50;0.83;;;;;;;15.97;89.46;97583.31;4961892;28;20241;-60
2023/08/03 05:16:43;;;;;;;3.87;0.83;;;;;;;15.79;92.26;97596.13;4958796;28;20244;-62
2023/08/03 05:19:10;;;;;;;4.23;0.63;;;;;;;15.66;94.88;97619.84;4960677;28;20291;-61
2023/08/03 05:21:38;;;;;;;3.33;0.60;;;;;;;15.51;98.33;97601.69;4963941;28;20241;-61
2023/08/03 05:24:05;;;;;;;5.43;0.80;;;;;;;15.32;100.00;97613.88;4964756;28;20589;-62
2023/08/03 05:26:32;;;;;;;2.27;0.60;;;;;;;15.20;100.00;97601.38;4965699;28;20232;-61
2023/08/03 05:28:59;;;;;;;3.07;0.80;;;;;;;15.06;100.00;97594.53;4962414;28;20232;-61
2023/08/03 05:31:26;;;;;;;4.23;1.90;;;;;;;15.24;100.00;97582.56;4965377;28;20235;-61
2023/08/03 05:33:54;;;;;;;3.80;0.70;;;;;;;15.54;100.00;97584.69;4965300;28;20243;-62
2023/08/03 05:36:22;;;;;;;4.40;0.80;;;;;;;15.46;100.00;97575.19;4962434;28;20331;-61
2023/08/03 05:38:52;;;;;;;6.73;1.00;;;;;;;15.61;100.00;97581.00;4964519;28;20244;-59
2023/08/03 05:41:22;;;;;;;4.30;1.00;;;;;;;15.75;97.83;97580.94;4964148;28;20331;-60
2023/08/03 05:43:48;;;;;;;5.07;1.00;;;;;;;16.05;95.98;97585.69;4968809;28;20236;-60
2023/08/03 05:46:16;;;;;;;7.30;1.20;;;;;;;16.17;93.56;97593.69;4966403;28;20236;-60
2023/08/03 05:48:43;;;;;;;7.27;1.07;;;;;;;16.40;92.24;97577.34;4969543;28;20243;-60
2023/08/03 05:51:11;;;;;;;8.07;1.50;;;;;;;16.59;90.68;97569.47;4966410;28;20239;-60
2023/08/03 05:53:38;;;;;;;7.83;1.27;;;;;;;16.62;87.57;97572.50;4969012;28;20234;-60
2023/08/03 05:56:12;;;;;;;4.23;1.30;;;;;;;16.80;87.12;97586.75;4966631;28;20905;-60
2023/08/03 05:58:38;;;;;;;4.20;0.93;;;;;;;16.96;81.20;97588.84;4968073;28;20306;-61
2023/08/03 06:01:06;;;;;;;6.33;1.00;;;;;;;17.42;80.09;97583.28;4965649;28;20245;-61
2023/08/03 06:03:34;;;;;;;6.43;1.40;;;;;;;17.20;79.79;97610.09;4969060;28;20698;-60
2023/08/03 06:06:04;;;;;;;8.70;1.40;;;;;;;17.23;76.53;97591.22;4966076;28;20323;-60
2023/08/03 06:08:31;;;;;;;6.23;1.00;;;;;;;17.41;76.37;97586.97;4968731;28;20233;-61
2023/08/03 06:11:02;;;;;;;6.53;1.30;;;;;;;17.43;76.97;97587.53;4965914;28;20237;-60
2023/08/03 06:13:34;;;;;;;4.90;1.10;;;;;;;17.75;75.62;97592.66;4968804;28;20241;-61
2023/08/03 06:16:04;;;;;;;5.87;1.00;;;;;;;17.16;74.97;97592.31;4965064;28;20237;-60
2023/08/03 06:18:32;;;;;;;5.53;0.97;;;;;;;17.13;74.91;97598.81;4968619;28;20602;-60
2023/08/03 06:20:58;;;;;;;4.90;1.30;;;;;;;17.06;74.61;97598.91;4965335;28;20292;-61
2023/08/03 06:23:30;;;;;;;3.63;0.80;;;;;;;17.05;74.67;97602.56;4966435;28;20317;-61
2023/08/03 06:25:58;;;;;;;8.53;0.90;;;;;;;17.11;73.05;97620.16;4966348;28;20230;-61
2023/08/03 06:28:32;;;;;;;3.33;0.80;;;;;;;17.16;72.52;97598.38;4968441;28;20235;-60
2023/08/03 06:30:59;;;;;;;5.07;0.83;;;;;;;17.38;72.80;97604.06;4964596;28;20239;-60
2023/08/03 06:33:33;;;;;;;4.73;0.90;;;;;;;17.39;72.19;97613.56;4968085;28;20333;-61
2023/08/03 06:36:00;;;;;;;7.63;1.00;;;;;;;17.33;70.24;97606.53;4961793;28;20238;-60
2023/08/03 06:38:32;;;;;;;5.50;1.10;;;;;;;17.11;70.48;97592.97;4968163;28;20240;-60
2023/08/03 06:40:59;;;;;;;6.83;0.93;;;;;;;17.38;70.26;97605.88;4965532;28;20244;-60
2023/08/03 06:43:32;;;;;;;3.87;1.03;;;;;;;17.30;72.76;97611.44;4967830;28;20240;-61
2023/08/03 06:46:00;;;;;;;5.53;1.07;;;;;;;17.47;68.80;97599.28;4965293;28;20243;-60
2023/08/03 06:48:31;;;;;;;5.53;1.43;;;;;;;17.31;69.06;97603.31;4968347;28;20574;-60
2023/08/03 06:50:57;;;;;;;5.97;0.97;;;;;;;17.20;69.90;97591.66;4965309;28;20238;-61
2023/08/03 06:53:50;;;;;;;3.00;0.87;;;;;;;17.36;71.02;97602.63;4968302;28;20241;-60
2023/08/03 06:56:17;;;;;;;3.73;0.90;;;;;;;17.27;71.29;97610.06;4965332;28;20237;-60
2023/08/03 06:58:45;;;;;;;5.17;1.00;;;;;;;17.13;70.86;97627.03;4967911;28;20662;-59
2023/08/03 07:01:12;;;;;;;8.37;1.13;;;;;;;17.14;71.36;97629.44;4964417;28;20237;-60
2023/08/03 07:03:38;;;;;;;6.30;1.00;;;;;;;16.93;70.18;97620.06;4967720;28;20242;-59
2023/08/03 07:06:05;;;;;;;7.77;0.80;;;;;;;16.99;70.36;97636.88;4964698;28;20225;-60
2023/08/03 07:08:32;;;;;;;4.00;0.80;;;;;;;17.00;69.56;97635.84;4967813;28;20233;-60
2023/08/03 07:10:58;;;;;;;4.07;1.10;;;;;;;16.96;69.55;97623.09;4964732;28;20246;-60
2023/08/03 07:13:30;;;;;;;3.60;0.97;;;;;;;17.02;69.42;97645.19;4967439;28;20293;-60
2023/08/03 07:16:06;;;;;;;4.63;0.80;;;;;;;17.03;69.80;97628.34;4963626;28;20234;-60
2023/08/03 07:18:33;;;;;;;8.10;1.40;;;;;;;16.96;68.09;97638.91;4966529;28;20310;-60
2023/08/03 07:21:03;;;;;;;4.53;0.90;;;;;;;16.97;69.59;97629.19;4962087;28;20237;-60
2023/08/03 07:23:30;;;;;;;6.27;0.80;;;;;;;17.07;70.13;97652.41;4958488;28;20233;-60
2023/08/03 07:25:58;;;;;;;3.90;1.03;;;;;;;16.93;70.00;97643.81;4949103;28;20225;-60
2023/08/03 07:28:27;;;;;;;3.30;1.00;;;;;;;16.97;71.28;97632.63;4964443;28;20240;-59
2023/08/03 07:30:54;;;;;;;4.43;0.87;;;;;;;16.96;71.37;97649.47;4963486;28;20248;-60
2023/08/03 07:33:22;;;;;;;7.50;1.00;;;;;;;16.95;71.40;97652.31;4966280;28;20234;-59
2023/08/03 07:57:25;;;;;;;3.57;1.23;;;;;;;17.03;71.89;97670.50;5027263;23;20317;-59
2023/08/03 07:59:52;;;;;;;3.63;0.90;;;;;;;17.25;71.67;97678.03;4961617;28;20235;-59
2023/08/03 08:02:19;;;;;;;4.07;0.60;;;;;;;17.25;70.70;97663.00;4945599;28;20230;-59
2023/08/03 08:04:49;;;;;;;4.70;1.00;;;;;;;17.23;70.14;97662.41;4955174;28;20253;-59
2023/08/03 08:07:16;;;;;;;2.60;0.97;;;;;;;17.35;69.87;97646.69;4954692;28;20230;-60
2023/08/03 08:09:42;;;;;;;1.77;0.70;;;;;;;17.44;70.37;97684.13;4954660;28;20217;-59
2023/08/03 08:12:09;;;;;;;6.07;0.90;;;;;;;17.31;72.46;97663.16;4950965;28;20237;-60
2023/08/03 08:14:37;;;;;;;7.57;0.70;;;;;;;17.23;72.83;97665.06;4952361;28;20653;-59
2023/08/03 08:17:04;;;;;;;2.67;0.53;;;;;;;17.32;71.40;97672.69;4951353;28;20233;-59
2023/08/03 08:19:31;;;;;;;4.70;0.90;;;;;;;17.40;71.72;97672.41;4954837;28;20737;-59
2023/08/03 08:21:57;;;;;;;5.53;0.93;;;;;;;17.39;72.03;97666.34;4953176;28;20253;-59
2023/08/03 08:24:24;;;;;;;5.43;0.90;;;;;;;17.54;70.56;97676.50;4958326;28;20234;-60
2023/08/03 08:26:50;;;;;;;2.80;0.60;;;;;;;17.66;72.73;97681.06;4956218;28;20705;-60
2023/08/03 08:29:17;;;;;;;2.60;0.87;;;;;;;17.76;72.25;97699.00;4946932;28;20252;-60
2023/08/03 08:31:45;;;;;;;5.77;0.80;;;;;;;17.74;74.61;97677.31;4948758;28;20238;-60
2023/08/03 08:34:12;;;;;;;5.93;0.80;;;;;;;17.47;75.88;97685.53;4951297;28;20247;-59
2023/08/03 08:36:38;;;;;;;3.57;0.50;;;;;;;17.33;73.95;97698.03;4951486;28;20233;-60
2023/08/03 08:39:05;;;;;;;8.00;2.50;;;;;;;17.37;74.10;97704.50;4956539;28;20221;-59
2023/08/03 08:41:31;;;;;;;6.37;1.00;;;;;;;17.43;74.19;97679.88;4953472;28;20318;-58
2023/08/03 08:43:58;;;;;;;3.67;0.70;;;;;;;17.19;74.20;97698.16;4950821;28;20245;-59
2023/08/03 08:46:25;;;;;;;3.67;0.60;;;;;;;17.38;75.28;97690.28;4955529;28;20231;-59
2023/08/03 08:48:53;;;;;;;5.43;0.80;;;;;;;17.48;71.84;97680.03;4950155;28;20242;-60
2023/08/03 08:51:21;;;;;;;3.47;1.00;;;;;;;17.33;73.39;97711.22;4949859;28;20222;-59
2023/08/03 08:53:47;;;;;;;3.80;0.73;;;;;;;17.23;76.75;97722.28;4952776;28;20238;-60
2023/08/03 08:56:14;;;;;;;3.60;0.83;;;;;;;17.46;75.63;97712.94;4951868;28;20331;-60
2023/08/03 08:58:41;;;;;;;5.13;0.90;;;;;;;17.97;75.81;97710.97;4952346;28;20219;-61
2023/08/03 09:01:07;;;;;;;5.70;1.00;;;;;;;17.77;74.35;97727.84;4949431;28;20716;-59
2023/08/03 09:03:47;;;;;;;5.50;0.97;;;;;;;17.94;76.22;97708.78;4950766;28;20245;-59
2023/08/03 09:06:15;;;;;;;3.80;0.83;;;;;;;18.33;78.49;97725.16;4952277;28;20319;-59
2023/08/03 09:08:50;;;;;;;8.13;0.80;;;;;;;18.30;78.15;97715.06;4953089;28;20238;-60
2023/08/03 09:11:16;;;;;;;5.77;0.80;;;;;;;18.42;79.05;97713.25;4953275;28;20726;-60
2023/08/03 09:13:46;;;;;;;7.90;1.07;;;;;;;18.49;80.13;97722.94;4953137;28;20571;-60
2023/08/03 09:16:23;;;;;;;6.17;0.97;;;;;;;18.76;79.28;97735.78;4948696;28;20313;-60
2023/08/03 09:18:49;;;;;;;4.50;1.07;;;;;;;19.14;79.62;97738.06;4948089;28;20239;-60
2023/08/03 09:21:19;;;;;;;5.83;0.70;;;;;;;18.71;75.67;97742.56;4964771;28;20230;-60
2023/08/03 09:23:46;;;;;;;4.77;0.90;;;;;;;18.22;84.24;97742.59;4956095;28;20726;-60
2023/08/03 09:26:13;;;;;;;3.33;0.80;;;;;;;18.53;82.31;97747.88;4952633;28;20315;-59
2023/08/03 09:28:41;;;;;;;3.00;0.80;;;;;;;18.62;80.51;97730.69;4952945;28;20231;-59
2023/08/03 09:31:09;;;;;;;6.23;1.60;;;;;;;18.90;81.11;97747.78;4954473;28;20235;-60
2023/08/03 09:33:36;;;;;;;4.47;0.80;;;;;;;18.79;75.87;97753.84;4953759;28;20226;-59
2023/08/03 09:36:10;;;;;;;4.70;0.80;;;;;;;18.68;78.24;97758.03;4950446;28;20239;-59
2023/08/03 09:38:39;;;;;;;3.57;0.73;;;;;;;18.70;75.98;97755.97;4950395;28;20234;-60
2023/08/03 09:41:06;;;;;;;5.53;0.70;;;;;;;18.42;78.96;97760.03;4947882;28;20242;-60
2023/08/03 09:43:34;;;;;;;4.17;0.80;;;;;;;18.22;78.03;97739.94;4956479;28;20372;-60
2023/08/03 09:46:02;;;;;;;4.83;1.00;;;;;;;18.68;76.27;97750.94;4949169;28;20235;-59
2023/08/03 09:48:30;;;;;;;2.00;0.50;;;;;;;18.61;77.00;97773.19;4956129;28;20247;-59
2023/08/03 09:50:59;;;;;;;6.90;0.90;;;;;;;19.09;72.33;97782.91;4949042;28;20238;-60
2023/08/03 09:53:36;;;;;;;3.47;0.77;;;;;;;19.46;72.78;97756.28;4953729;28;20572;-59
2023/08/03 09:56:06;;;;;;;7.20;0.77;;;;;;;19.87;70.19;97751.06;4949946;28;20235;-59
2023/08/03 09:58:39;;;;;;;3.70;0.67;;;;;;;19.45;71.98;97765.25;4955168;28;20239;-58
2023/08/03 10:01:10;;;;;;;4.57;0.70;;;;;;;19.84;68.85;97775.34;4951600;28;20271;-59
2023/08/03 10:03:43;;;;;;;4.60;0.70;;;;;;;19.87;71.98;97758.19;4968156;28;20230;-59
2023/08/03 10:06:15;;;;;;;4.17;0.50;;;;;;;19.81;68.86;97765.22;4951318;28;20231;-59
2023/08/03 10:08:48;;;;;;;3.00;0.70;;;;;;;20.71;64.51;97786.09;4954944;28;20236;-60
2023/08/03 10:11:16;;;;;;;2.80;0.70;;;;;;;21.03;65.93;97785.63;4949263;28;20245;-60
2023/08/03 10:13:47;;;;;;;2.83;0.50;;;;;;;21.01;63.57;97795.66;4951112;28;20232;-60
2023/08/03 10:16:15;;;;;;;4.60;0.80;;;;;;;21.24;62.41;97810.63;4950325;28;20301;-59
2023/08/03 10:18:46;;;;;;;3.17;0.60;;;;;;;21.37;63.39;97803.41;4951060;28;20228;-60
2023/08/03 10:21:13;;;;;;;1.10;0.30;;;;;;;20.83;63.67;97794.00;4951843;28;20257;-60
2023/08/03 10:23:39;;;;;;;3.70;0.70;;;;;;;21.17;63.26;97807.34;4953312;28;20255;-60
2023/08/03 10:26:07;;;;;;;3.17;0.50;;;;;;;20.93;64.12;97790.75;4951507;28;20258;-60
2023/08/03 10:28:48;;;;;;;4.90;0.80;;;;;;;20.86;62.57;97803.34;4959068;28;20244;-60
2023/08/03 10:31:17;;;;;;;4.17;0.90;;;;;;;21.43;65.10;97799.78;4956439;28;20693;-59
2023/08/03 10:34:05;;;;;;;2.50;0.60;;;;;;;20.82;63.68;97799.56;4955318;28;20231;-61
2023/08/03 10:36:38;;;;;;;4.33;1.07;;;;;;;21.16;62.47;97807.59;4948518;28;20259;-59
2023/08/03 10:39:07;;;;;;;2.83;0.50;;;;;;;20.88;64.74;97791.44;4954598;28;20237;-58
2023/08/03 10:41:37;;;;;;;2.53;0.70;;;;;;;21.38;60.01;97815.63;4953104;28;20306;-59
2023/08/03 10:44:24;;;;;;;2.30;0.43;;;;;;;20.53;63.26;97794.22;4950972;28;20232;-60
2023/08/03 10:46:52;;;;;;;1.10;0.33;;;;;;;20.82;61.80;97799.56;4955464;28;20245;-59
2023/08/03 10:49:50;;;;;;;4.40;0.57;;;;;;;20.30;64.31;97798.56;4951928;28;20224;-59
2023/08/03 10:52:19;;;;;;;2.27;0.60;;;;;;;20.68;63.04;97799.00;4947951;28;20238;-57
2023/08/03 10:54:47;;;;;;;3.37;0.50;;;;;;;21.11;61.12;97797.69;4955042;28;20228;-58
2023/08/03 10:57:15;;;;;;;4.83;0.70;;;;;;;20.87;61.73;97810.28;4956970;28;20829;-59
2023/08/03 10:59:44;;;;;;;7.10;0.80;;;;;;;21.05;64.54;97820.69;4960042;28;20236;-60
2023/08/03 11:02:13;;;;;;;1.63;0.40;;;;;;;21.11;61.18;97820.78;4947160;28;20240;-60
2023/08/03 11:04:40;;;;;;;3.20;0.30;;;;;;;21.63;60.59;97839.16;4955847;28;20703;-60
2023/08/03 11:07:09;;;;;;;3.90;0.53;;;;;;;21.32;58.91;97829.88;4954695;28;20248;-59
2023/08/03 11:09:35;;;;;;;2.20;0.40;;;;;;;21.23;60.41;97821.47;4957437;28;20229;-59
2023/08/03 11:12:03;;;;;;;3.33;0.50;;;;;;;21.09;61.16;97810.38;4954260;28;20250;-59
2023/08/03 11:14:30;;;;;;;3.33;0.60;;;;;;;20.75;63.09;97818.22;4956639;28;20243;-59
2023/08/03 11:16:58;;;;;;;3.20;0.50;;;;;;;20.01;66.08;97819.72;4954603;28;20248;-59
2023/08/03 11:19:31;;;;;;;3.73;0.47;;;;;;;19.83;66.33;97829.34;4956211;28;20576;-59
2023/08/03 11:21:58;;;;;;;5.20;0.73;;;;;;;20.35;63.04;97851.66;4953334;28;20447;-59
2023/08/03 11:24:25;;;;;;;4.03;0.50;;;;;;;19.74;63.29;97844.75;4957002;28;20233;-60
2023/08/03 11:26:52;;;;;;;4.87;0.50;;;;;;;19.54;63.27;97844.31;4954750;28;20741;-60
2023/08/03 11:29:19;;;;;;;2.00;0.50;;;;;;;19.76;63.20;97869.16;4952948;28;20234;-60
2023/08/03 11:31:45;;;;;;;2.37;0.40;;;;;;;19.92;61.71;97861.63;4957392;28;20231;-58
2023/08/03 11:34:15;;;;;;;3.83;0.50;;;;;;;19.88;64.32;97853.31;4954575;28;21137;-59
2023/08/03 11:36:47;;;;;;;2.07;0.50;;;;;;;20.20;61.35;97860.91;4951311;28;20244;-59
2023/08/03 11:39:14;;;;;;;4.33;0.50;;;;;;;20.16;62.38;97851.00;4949726;28;20253;-59
2023/08/03 11:41:42;;;;;;;3.83;0.53;;;;;;;20.63;60.63;97864.19;4963817;28;20633;-61
2023/08/03 11:44:09;;;;;;;4.57;0.90;;;;;;;20.72;62.26;97853.19;4949907;28;20257;-60
2023/08/03 11:46:35;;;;;;;4.10;0.60;;;;;;;20.36;62.69;97840.03;4951261;28;20705;-61
2023/08/03 11:49:03;;;;;;;2.17;0.50;;;;;;;20.01;66.41;97848.84;4949090;28;20232;-58
2023/08/03 11:51:32;;;;;;;1.00;0.47;;;;;;;19.80;67.36;97837.75;4955949;28;20237;-60
2023/08/03 11:54:02;;;;;;;3.00;0.57;;;;;;;19.82;66.33;97830.38;4947383;28;20223;-59
2023/08/03 11:56:29;;;;;;;2.33;0.40;;;;;;;20.12;66.98;97837.44;4953669;28;20633;-60
2023/08/03 11:58:56;;;;;;;2.90;0.60;;;;;;;20.56;65.55;97846.78;4952549;28;20247;-60
2023/08/03 12:01:26;;;;;;;1.93;0.40;;;;;;;20.53;64.33;97834.81;4953533;28;20330;-59